sensor_id;sensor_type;location;lat;lon;timestamp;P1;durP1;ratioP1;P2;durP2;ratioP2
11488;SDS011;5801;50.804;12.638;2023-09-19T00:00:19;1.48;;;1.30;;
11488;SDS011;5801;50.804;12.638;2023-09-19T00:02:57;2.15;;;1.45;;
11488;SDS011;5801;50.804;12.638;2023-09-19T00:05:26;3.45;;;1.63;;
11488;SDS011;5801;50.804;12.638;2023-09-19T00:07:54;1.65;;;1.35;;
11488;SDS011;5801;50.804;12.638;2023-09-19T00:10:26;1.90;;;1.33;;
11488;SDS011;5801;50.804;12.638;2023-09-19T00:12:56;1.75;;;1.10;;
11488;SDS011;5801;50.804;12.638;2023-09-19T00:15:24;2.35;;;1.17;;
11488;SDS011;5801;50.804;12.638;2023-09-19T00:17:56;1.48;;;1.20;;
11488;SDS011;5801;50.804;12.638;2023-09-19T00:20:22;1.55;;;1.20;;
11488;SDS011;5801;50.804;12.638;2023-09-19T00:22:49;2.17;;;0.93;;
11488;SDS011;5801;50.804;12.638;2023-09-19T00:25:17;5.20;;;1.35;;
11488;SDS011;5801;50.804;12.638;2023-09-19T00:27:43;1.38;;;1.02;;
11488;SDS011;5801;50.804;12.638;2023-09-19T00:30:10;1.42;;;1.08;;
11488;SDS011;5801;50.804;12.638;2023-09-19T00:32:46;1.90;;;1.00;;
11488;SDS011;5801;50.804;12.638;2023-09-19T00:35:14;2.67;;;1.10;;
11488;SDS011;5801;50.804;12.638;2023-09-19T00:37:44;1.23;;;1.00;;
11488;SDS011;5801;50.804;12.638;2023-09-19T00:40:10;3.58;;;1.42;;
11488;SDS011;5801;50.804;12.638;2023-09-19T00:42:37;4.55;;;1.30;;
11488;SDS011;5801;50.804;12.638;2023-09-19T00:45:07;2.25;;;1.17;;
11488;SDS011;5801;50.804;12.638;2023-09-19T00:47:36;1.35;;;1.10;;
11488;SDS011;5801;50.804;12.638;2023-09-19T00:50:10;2.97;;;1.10;;
11488;SDS011;5801;50.804;12.638;2023-09-19T00:52:39;2.80;;;1.23;;
11488;SDS011;5801;50.804;12.638;2023-09-19T00:55:10;5.97;;;1.40;;
11488;SDS011;5801;50.804;12.638;2023-09-19T00:57:39;2.70;;;1.48;;
11488;SDS011;5801;50.804;12.638;2023-09-19T01:00:06;1.40;;;1.30;;
11488;SDS011;5801;50.804;12.638;2023-09-19T01:02:36;1.77;;;1.23;;
11488;SDS011;5801;50.804;12.638;2023-09-19T01:05:02;2.35;;;1.15;;
11488;SDS011;5801;50.804;12.638;2023-09-19T01:07:31;1.55;;;1.00;;
11488;SDS011;5801;50.804;12.638;2023-09-19T01:10:02;3.55;;;1.35;;
11488;SDS011;5801;50.804;12.638;2023-09-19T01:18:52;3.38;;;1.10;;
11488;SDS011;5801;50.804;12.638;2023-09-19T01:22:08;2.75;;;0.98;;
11488;SDS011;5801;50.804;12.638;2023-09-19T01:29:48;1.77;;;1.00;;
11488;SDS011;5801;50.804;12.638;2023-09-19T01:32:18;2.85;;;1.23;;
11488;SDS011;5801;50.804;12.638;2023-09-19T01:34:56;1.08;;;0.90;;
11488;SDS011;5801;50.804;12.638;2023-09-19T01:37:29;9.02;;;0.98;;
11488;SDS011;5801;50.804;12.638;2023-09-19T01:40:03;1.70;;;0.80;;
11488;SDS011;5801;50.804;12.638;2023-09-19T01:51:13;1.20;;;1.10;;
11488;SDS011;5801;50.804;12.638;2023-09-19T01:53:53;0.85;;;0.75;;
11488;SDS011;5801;50.804;12.638;2023-09-19T01:56:32;5.97;;;1.20;;
11488;SDS011;5801;50.804;12.638;2023-09-19T01:59:09;2.22;;;1.08;;
11488;SDS011;5801;50.804;12.638;2023-09-19T02:01:38;3.28;;;0.90;;
11488;SDS011;5801;50.804;12.638;2023-09-19T02:04:06;2.90;;;1.33;;
11488;SDS011;5801;50.804;12.638;2023-09-19T02:06:32;1.33;;;1.00;;
11488;SDS011;5801;50.804;12.638;2023-09-19T02:08:59;4.72;;;1.20;;
11488;SDS011;5801;50.804;12.638;2023-09-19T02:11:25;3.17;;;1.17;;
11488;SDS011;5801;50.804;12.638;2023-09-19T02:13:51;4.15;;;1.55;;
11488;SDS011;5801;50.804;12.638;2023-09-19T02:16:19;1.48;;;1.15;;
11488;SDS011;5801;50.804;12.638;2023-09-19T02:18:47;1.77;;;0.93;;
11488;SDS011;5801;50.804;12.638;2023-09-19T02:21:16;3.72;;;1.20;;
11488;SDS011;5801;50.804;12.638;2023-09-19T02:23:45;4.28;;;1.10;;
11488;SDS011;5801;50.804;12.638;2023-09-19T02:26:12;3.03;;;1.23;;
11488;SDS011;5801;50.804;12.638;2023-09-19T02:28:39;4.18;;;1.20;;
11488;SDS011;5801;50.804;12.638;2023-09-19T02:31:05;1.60;;;0.77;;
11488;SDS011;5801;50.804;12.638;2023-09-19T02:33:31;2.47;;;1.10;;
11488;SDS011;5801;50.804;12.638;2023-09-19T02:35:57;2.97;;;0.90;;
11488;SDS011;5801;50.804;12.638;2023-09-19T02:38:24;2.90;;;1.10;;
11488;SDS011;5801;50.804;12.638;2023-09-19T02:40:51;2.70;;;1.27;;
11488;SDS011;5801;50.804;12.638;2023-09-19T02:43:17;1.50;;;0.82;;
11488;SDS011;5801;50.804;12.638;2023-09-19T02:45:44;7.60;;;1.05;;
11488;SDS011;5801;50.804;12.638;2023-09-19T02:48:11;2.55;;;1.20;;
11488;SDS011;5801;50.804;12.638;2023-09-19T02:50:38;1.52;;;1.23;;
11488;SDS011;5801;50.804;12.638;2023-09-19T02:53:05;5.03;;;1.30;;
11488;SDS011;5801;50.804;12.638;2023-09-19T02:55:31;1.50;;;1.40;;
11488;SDS011;5801;50.804;12.638;2023-09-19T02:57:57;3.50;;;0.98;;
11488;SDS011;5801;50.804;12.638;2023-09-19T03:00:23;1.52;;;1.10;;
11488;SDS011;5801;50.804;12.638;2023-09-19T03:02:50;3.72;;;1.10;;
11488;SDS011;5801;50.804;12.638;2023-09-19T03:05:18;2.65;;;1.10;;
11488;SDS011;5801;50.804;12.638;2023-09-19T03:07:46;2.78;;;1.15;;
11488;SDS011;5801;50.804;12.638;2023-09-19T03:10:16;3.88;;;1.38;;
11488;SDS011;5801;50.804;12.638;2023-09-19T03:12:43;3.90;;;1.00;;
11488;SDS011;5801;50.804;12.638;2023-09-19T03:15:09;3.13;;;1.20;;
11488;SDS011;5801;50.804;12.638;2023-09-19T03:17:36;1.70;;;1.17;;
11488;SDS011;5801;50.804;12.638;2023-09-19T03:20:02;2.15;;;1.35;;
11488;SDS011;5801;50.804;12.638;2023-09-19T03:22:33;1.00;;;0.90;;
11488;SDS011;5801;50.804;12.638;2023-09-19T03:24:59;2.60;;;1.27;;
11488;SDS011;5801;50.804;12.638;2023-09-19T03:27:25;2.20;;;2.00;;
11488;SDS011;5801;50.804;12.638;2023-09-19T03:29:52;2.08;;;1.20;;
11488;SDS011;5801;50.804;12.638;2023-09-19T03:32:18;1.65;;;0.98;;
11488;SDS011;5801;50.804;12.638;2023-09-19T03:34:44;1.17;;;0.93;;
11488;SDS011;5801;50.804;12.638;2023-09-19T03:37:13;3.38;;;1.23;;
11488;SDS011;5801;50.804;12.638;2023-09-19T03:39:39;5.97;;;1.23;;
11488;SDS011;5801;50.804;12.638;2023-09-19T03:42:05;4.00;;;1.30;;
11488;SDS011;5801;50.804;12.638;2023-09-19T03:44:32;2.50;;;1.15;;
11488;SDS011;5801;50.804;12.638;2023-09-19T03:46:58;2.67;;;1.20;;
11488;SDS011;5801;50.804;12.638;2023-09-19T03:49:24;2.45;;;1.13;;
11488;SDS011;5801;50.804;12.638;2023-09-19T03:51:50;1.50;;;1.05;;
11488;SDS011;5801;50.804;12.638;2023-09-19T03:54:16;1.73;;;1.23;;
11488;SDS011;5801;50.804;12.638;2023-09-19T03:56:44;2.47;;;1.20;;
11488;SDS011;5801;50.804;12.638;2023-09-19T03:59:10;3.58;;;1.20;;
11488;SDS011;5801;50.804;12.638;2023-09-19T04:01:37;1.20;;;1.10;;
11488;SDS011;5801;50.804;12.638;2023-09-19T04:04:03;1.40;;;1.10;;
11488;SDS011;5801;50.804;12.638;2023-09-19T04:06:33;6.07;;;1.23;;
11488;SDS011;5801;50.804;12.638;2023-09-19T04:09:02;1.60;;;1.30;;
11488;SDS011;5801;50.804;12.638;2023-09-19T04:11:29;1.50;;;1.23;;
11488;SDS011;5801;50.804;12.638;2023-09-19T04:13:56;4.32;;;1.27;;
11488;SDS011;5801;50.804;12.638;2023-09-19T04:16:22;3.33;;;1.58;;
11488;SDS011;5801;50.804;12.638;2023-09-19T04:18:48;4.25;;;1.63;;
11488;SDS011;5801;50.804;12.638;2023-09-19T04:21:13;1.70;;;1.30;;
11488;SDS011;5801;50.804;12.638;2023-09-19T04:23:39;6.70;;;1.60;;
11488;SDS011;5801;50.804;12.638;2023-09-19T04:26:06;1.30;;;1.20;;
11488;SDS011;5801;50.804;12.638;2023-09-19T04:28:32;5.40;;;1.30;;
11488;SDS011;5801;50.804;12.638;2023-09-19T04:30:59;1.25;;;1.15;;
11488;SDS011;5801;50.804;12.638;2023-09-19T04:33:26;1.50;;;1.15;;
11488;SDS011;5801;50.804;12.638;2023-09-19T04:35:55;4.75;;;1.10;;
11488;SDS011;5801;50.804;12.638;2023-09-19T04:38:21;1.35;;;1.25;;
11488;SDS011;5801;50.804;12.638;2023-09-19T04:40:47;3.58;;;1.35;;
11488;SDS011;5801;50.804;12.638;2023-09-19T04:43:13;1.88;;;1.40;;
11488;SDS011;5801;50.804;12.638;2023-09-19T04:45:40;5.32;;;1.50;;
11488;SDS011;5801;50.804;12.638;2023-09-19T04:48:06;4.38;;;1.08;;
11488;SDS011;5801;50.804;12.638;2023-09-19T04:50:33;4.93;;;1.08;;
11488;SDS011;5801;50.804;12.638;2023-09-19T04:52:59;1.33;;;1.00;;
11488;SDS011;5801;50.804;12.638;2023-09-19T04:55:26;2.55;;;1.05;;
11488;SDS011;5801;50.804;12.638;2023-09-19T04:57:52;5.22;;;1.70;;
11488;SDS011;5801;50.804;12.638;2023-09-19T05:00:21;2.47;;;1.48;;
11488;SDS011;5801;50.804;12.638;2023-09-19T05:02:51;3.47;;;1.50;;
11488;SDS011;5801;50.804;12.638;2023-09-19T05:05:21;3.78;;;1.42;;
11488;SDS011;5801;50.804;12.638;2023-09-19T05:07:48;2.25;;;1.42;;
11488;SDS011;5801;50.804;12.638;2023-09-19T05:10:16;1.30;;;1.20;;
11488;SDS011;5801;50.804;12.638;2023-09-19T05:12:43;1.73;;;1.08;;
11488;SDS011;5801;50.804;12.638;2023-09-19T05:15:12;2.03;;;1.35;;
11488;SDS011;5801;50.804;12.638;2023-09-19T05:17:39;2.78;;;1.00;;
11488;SDS011;5801;50.804;12.638;2023-09-19T05:20:05;1.55;;;1.20;;
11488;SDS011;5801;50.804;12.638;2023-09-19T05:22:41;0.82;;;0.82;;
11488;SDS011;5801;50.804;12.638;2023-09-19T05:25:08;1.30;;;1.13;;
11488;SDS011;5801;50.804;12.638;2023-09-19T05:27:34;2.03;;;1.20;;
11488;SDS011;5801;50.804;12.638;2023-09-19T05:30:01;0.85;;;0.82;;
11488;SDS011;5801;50.804;12.638;2023-09-19T05:32:27;2.80;;;1.00;;
11488;SDS011;5801;50.804;12.638;2023-09-19T05:34:53;2.58;;;1.10;;
11488;SDS011;5801;50.804;12.638;2023-09-19T05:37:21;1.15;;;0.95;;
11488;SDS011;5801;50.804;12.638;2023-09-19T05:39:48;1.30;;;1.15;;
11488;SDS011;5801;50.804;12.638;2023-09-19T05:42:14;1.95;;;0.80;;
11488;SDS011;5801;50.804;12.638;2023-09-19T05:44:40;1.05;;;0.80;;
11488;SDS011;5801;50.804;12.638;2023-09-19T05:47:06;2.47;;;1.02;;
11488;SDS011;5801;50.804;12.638;2023-09-19T05:49:34;2.15;;;1.10;;
11488;SDS011;5801;50.804;12.638;2023-09-19T05:52:03;1.15;;;0.80;;
11488;SDS011;5801;50.804;12.638;2023-09-19T05:54:32;1.38;;;0.85;;
11488;SDS011;5801;50.804;12.638;2023-09-19T05:56:59;2.75;;;0.85;;
11488;SDS011;5801;50.804;12.638;2023-09-19T05:59:28;3.08;;;1.02;;
11488;SDS011;5801;50.804;12.638;2023-09-19T06:01:55;2.92;;;1.17;;
11488;SDS011;5801;50.804;12.638;2023-09-19T06:04:20;1.10;;;1.00;;
11488;SDS011;5801;50.804;12.638;2023-09-19T06:06:47;3.65;;;1.20;;
11488;SDS011;5801;50.804;12.638;2023-09-19T06:09:13;1.48;;;1.08;;
11488;SDS011;5801;50.804;12.638;2023-09-19T06:11:41;2.85;;;1.02;;
11488;SDS011;5801;50.804;12.638;2023-09-19T06:14:07;5.93;;;1.17;;
11488;SDS011;5801;50.804;12.638;2023-09-19T06:16:35;0.75;;;0.75;;
11488;SDS011;5801;50.804;12.638;2023-09-19T06:19:03;2.85;;;1.15;;
11488;SDS011;5801;50.804;12.638;2023-09-19T06:21:31;5.68;;;1.45;;
11488;SDS011;5801;50.804;12.638;2023-09-19T06:23:57;1.52;;;0.90;;
11488;SDS011;5801;50.804;12.638;2023-09-19T06:26:24;1.02;;;1.00;;
11488;SDS011;5801;50.804;12.638;2023-09-19T06:28:52;3.80;;;1.35;;
11488;SDS011;5801;50.804;12.638;2023-09-19T06:31:17;1.98;;;1.25;;
11488;SDS011;5801;50.804;12.638;2023-09-19T06:33:46;1.80;;;1.30;;
11488;SDS011;5801;50.804;12.638;2023-09-19T06:36:12;3.55;;;0.90;;
11488;SDS011;5801;50.804;12.638;2023-09-19T06:38:38;1.95;;;1.10;;
11488;SDS011;5801;50.804;12.638;2023-09-19T06:41:04;1.75;;;1.10;;
11488;SDS011;5801;50.804;12.638;2023-09-19T06:43:31;1.45;;;1.20;;
11488;SDS011;5801;50.804;12.638;2023-09-19T06:45:58;2.47;;;1.23;;
11488;SDS011;5801;50.804;12.638;2023-09-19T06:48:25;1.40;;;1.30;;
11488;SDS011;5801;50.804;12.638;2023-09-19T06:50:58;1.83;;;1.23;;
11488;SDS011;5801;50.804;12.638;2023-09-19T06:53:29;1.20;;;1.08;;
11488;SDS011;5801;50.804;12.638;2023-09-19T06:55:56;1.23;;;1.08;;
11488;SDS011;5801;50.804;12.638;2023-09-19T06:58:23;2.08;;;1.40;;
11488;SDS011;5801;50.804;12.638;2023-09-19T07:00:49;2.38;;;0.88;;
11488;SDS011;5801;50.804;12.638;2023-09-19T07:03:15;1.10;;;1.00;;
11488;SDS011;5801;50.804;12.638;2023-09-19T07:05:43;2.42;;;1.13;;
11488;SDS011;5801;50.804;12.638;2023-09-19T07:08:10;0.98;;;0.90;;
11488;SDS011;5801;50.804;12.638;2023-09-19T07:10:37;1.77;;;1.05;;
11488;SDS011;5801;50.804;12.638;2023-09-19T07:13:09;4.03;;;1.00;;
11488;SDS011;5801;50.804;12.638;2023-09-19T07:15:36;0.88;;;0.88;;
11488;SDS011;5801;50.804;12.638;2023-09-19T07:18:06;3.65;;;1.20;;
11488;SDS011;5801;50.804;12.638;2023-09-19T07:20:36;2.00;;;1.00;;
11488;SDS011;5801;50.804;12.638;2023-09-19T07:23:03;3.97;;;1.20;;
11488;SDS011;5801;50.804;12.638;2023-09-19T07:25:29;1.60;;;0.90;;
11488;SDS011;5801;50.804;12.638;2023-09-19T07:27:56;3.95;;;1.00;;
11488;SDS011;5801;50.804;12.638;2023-09-19T07:30:25;1.65;;;1.00;;
11488;SDS011;5801;50.804;12.638;2023-09-19T07:32:51;0.98;;;0.82;;
11488;SDS011;5801;50.804;12.638;2023-09-19T07:35:18;1.63;;;0.80;;
11488;SDS011;5801;50.804;12.638;2023-09-19T07:37:47;0.98;;;0.80;;
11488;SDS011;5801;50.804;12.638;2023-09-19T07:40:16;1.48;;;0.93;;
11488;SDS011;5801;50.804;12.638;2023-09-19T07:42:43;1.02;;;0.93;;
11488;SDS011;5801;50.804;12.638;2023-09-19T07:45:11;1.77;;;1.17;;
11488;SDS011;5801;50.804;12.638;2023-09-19T07:47:45;1.27;;;0.88;;
11488;SDS011;5801;50.804;12.638;2023-09-19T07:50:12;0.70;;;0.70;;
11488;SDS011;5801;50.804;12.638;2023-09-19T07:52:38;0.70;;;0.70;;
11488;SDS011;5801;50.804;12.638;2023-09-19T07:55:05;0.85;;;0.65;;
11488;SDS011;5801;50.804;12.638;2023-09-19T07:57:36;2.38;;;0.82;;
11488;SDS011;5801;50.804;12.638;2023-09-19T08:00:02;1.52;;;0.95;;
11488;SDS011;5801;50.804;12.638;2023-09-19T08:02:38;0.80;;;0.75;;
11488;SDS011;5801;50.804;12.638;2023-09-19T08:05:06;1.70;;;0.80;;
11488;SDS011;5801;50.804;12.638;2023-09-19T08:07:35;1.40;;;0.68;;
11488;SDS011;5801;50.804;12.638;2023-09-19T08:10:06;2.13;;;0.70;;
11488;SDS011;5801;50.804;12.638;2023-09-19T08:12:36;0.60;;;0.60;;
11488;SDS011;5801;50.804;12.638;2023-09-19T08:15:04;0.55;;;0.55;;
11488;SDS011;5801;50.804;12.638;2023-09-19T08:17:34;2.40;;;0.73;;
11488;SDS011;5801;50.804;12.638;2023-09-19T08:20:01;0.70;;;0.65;;
11488;SDS011;5801;50.804;12.638;2023-09-19T08:22:30;1.65;;;0.90;;
11488;SDS011;5801;50.804;12.638;2023-09-19T08:24:57;1.45;;;0.82;;
11488;SDS011;5801;50.804;12.638;2023-09-19T08:27:23;1.65;;;0.70;;
11488;SDS011;5801;50.804;12.638;2023-09-19T08:29:52;7.90;;;0.80;;
11488;SDS011;5801;50.804;12.638;2023-09-19T08:32:18;1.58;;;0.63;;
11488;SDS011;5801;50.804;12.638;2023-09-19T08:34:49;0.90;;;0.60;;
11488;SDS011;5801;50.804;12.638;2023-09-19T08:37:15;0.85;;;0.60;;
11488;SDS011;5801;50.804;12.638;2023-09-19T08:39:43;1.27;;;0.77;;
11488;SDS011;5801;50.804;12.638;2023-09-19T08:42:09;0.70;;;0.60;;
11488;SDS011;5801;50.804;12.638;2023-09-19T08:44:36;2.40;;;0.80;;
11488;SDS011;5801;50.804;12.638;2023-09-19T08:47:13;1.20;;;0.80;;
11488;SDS011;5801;50.804;12.638;2023-09-19T08:55:11;1.65;;;0.80;;
11488;SDS011;5801;50.804;12.638;2023-09-19T08:57:46;1.35;;;0.77;;
11488;SDS011;5801;50.804;12.638;2023-09-19T09:00:15;0.82;;;0.77;;
11488;SDS011;5801;50.804;12.638;2023-09-19T09:02:46;1.90;;;0.95;;
11488;SDS011;5801;50.804;12.638;2023-09-19T09:05:12;1.20;;;1.02;;
11488;SDS011;5801;50.804;12.638;2023-09-19T09:07:41;1.77;;;0.80;;
11488;SDS011;5801;50.804;12.638;2023-09-19T09:10:07;4.95;;;0.90;;
11488;SDS011;5801;50.804;12.638;2023-09-19T09:12:34;0.80;;;0.80;;
11488;SDS011;5801;50.804;12.638;2023-09-19T09:15:06;3.38;;;1.27;;
11488;SDS011;5801;50.804;12.638;2023-09-19T09:17:33;1.48;;;0.85;;
11488;SDS011;5801;50.804;12.638;2023-09-19T09:20:00;0.77;;;0.73;;
11488;SDS011;5801;50.804;12.638;2023-09-19T09:22:25;1.92;;;0.70;;
11488;SDS011;5801;50.804;12.638;2023-09-19T09:24:55;2.03;;;1.00;;
11488;SDS011;5801;50.804;12.638;2023-09-19T09:27:24;1.00;;;0.80;;
11488;SDS011;5801;50.804;12.638;2023-09-19T09:29:50;1.17;;;0.80;;
11488;SDS011;5801;50.804;12.638;2023-09-19T09:34:47;2.05;;;0.80;;
11488;SDS011;5801;50.804;12.638;2023-09-19T09:37:16;3.63;;;0.98;;
11488;SDS011;5801;50.804;12.638;2023-09-19T09:42:43;0.52;;;0.52;;
11488;SDS011;5801;50.804;12.638;2023-09-19T09:45:21;1.63;;;0.68;;
11488;SDS011;5801;50.804;12.638;2023-09-19T09:48:02;0.93;;;0.75;;
11488;SDS011;5801;50.804;12.638;2023-09-19T09:50:39;0.90;;;0.50;;
11488;SDS011;5801;50.804;12.638;2023-09-19T09:53:24;0.52;;;0.40;;
11488;SDS011;5801;50.804;12.638;2023-09-19T09:56:03;1.13;;;0.65;;
11488;SDS011;5801;50.804;12.638;2023-09-19T09:58:52;0.82;;;0.60;;
11488;SDS011;5801;50.804;12.638;2023-09-19T10:01:20;2.65;;;0.60;;
11488;SDS011;5801;50.804;12.638;2023-09-19T10:03:51;0.60;;;0.60;;
11488;SDS011;5801;50.804;12.638;2023-09-19T10:06:23;1.75;;;0.90;;
11488;SDS011;5801;50.804;12.638;2023-09-19T10:09:02;0.40;;;0.40;;
11488;SDS011;5801;50.804;12.638;2023-09-19T10:11:48;1.10;;;0.73;;
11488;SDS011;5801;50.804;12.638;2023-09-19T10:14:29;3.38;;;0.90;;
11488;SDS011;5801;50.804;12.638;2023-09-19T10:16:59;1.10;;;0.90;;
11488;SDS011;5801;50.804;12.638;2023-09-19T10:19:29;1.02;;;0.80;;
11488;SDS011;5801;50.804;12.638;2023-09-19T10:22:02;1.58;;;0.82;;
11488;SDS011;5801;50.804;12.638;2023-09-19T10:24:30;1.15;;;0.80;;
11488;SDS011;5801;50.804;12.638;2023-09-19T10:27:01;2.90;;;0.80;;
11488;SDS011;5801;50.804;12.638;2023-09-19T10:29:29;0.73;;;0.65;;
11488;SDS011;5801;50.804;12.638;2023-09-19T10:32:01;1.42;;;0.65;;
11488;SDS011;5801;50.804;12.638;2023-09-19T10:34:30;0.70;;;0.68;;
11488;SDS011;5801;50.804;12.638;2023-09-19T10:37:01;1.58;;;0.70;;
11488;SDS011;5801;50.804;12.638;2023-09-19T10:39:30;1.23;;;0.95;;
11488;SDS011;5801;50.804;12.638;2023-09-19T10:41:57;1.02;;;0.47;;
11488;SDS011;5801;50.804;12.638;2023-09-19T10:44:30;3.38;;;0.73;;
11488;SDS011;5801;50.804;12.638;2023-09-19T10:46:58;2.20;;;0.60;;
11488;SDS011;5801;50.804;12.638;2023-09-19T10:49:24;1.38;;;1.02;;
11488;SDS011;5801;50.804;12.638;2023-09-19T10:51:52;1.05;;;0.75;;
11488;SDS011;5801;50.804;12.638;2023-09-19T10:54:23;1.58;;;0.88;;
11488;SDS011;5801;50.804;12.638;2023-09-19T10:56:55;1.77;;;1.00;;
11488;SDS011;5801;50.804;12.638;2023-09-19T10:59:24;1.17;;;1.00;;
11488;SDS011;5801;50.804;12.638;2023-09-19T11:01:53;1.95;;;1.08;;
11488;SDS011;5801;50.804;12.638;2023-09-19T11:04:28;1.77;;;1.02;;
11488;SDS011;5801;50.804;12.638;2023-09-19T11:07:04;2.40;;;0.90;;
11488;SDS011;5801;50.804;12.638;2023-09-19T11:14:56;1.08;;;0.77;;
11488;SDS011;5801;50.804;12.638;2023-09-19T11:17:35;1.15;;;0.90;;
11488;SDS011;5801;50.804;12.638;2023-09-19T11:43:45;1.85;;;1.30;;
11488;SDS011;5801;50.804;12.638;2023-09-19T11:46:11;1.30;;;0.98;;
11488;SDS011;5801;50.804;12.638;2023-09-19T11:48:41;1.20;;;1.10;;
11488;SDS011;5801;50.804;12.638;2023-09-19T11:51:37;1.08;;;0.98;;
11488;SDS011;5801;50.804;12.638;2023-09-19T11:54:10;2.50;;;1.10;;
11488;SDS011;5801;50.804;12.638;2023-09-19T11:56:43;1.95;;;1.10;;
11488;SDS011;5801;50.804;12.638;2023-09-19T11:59:10;1.33;;;1.13;;
11488;SDS011;5801;50.804;12.638;2023-09-19T12:01:37;2.15;;;1.35;;
11488;SDS011;5801;50.804;12.638;2023-09-19T12:04:08;4.05;;;1.13;;
11488;SDS011;5801;50.804;12.638;2023-09-19T12:06:36;2.33;;;1.20;;
11488;SDS011;5801;50.804;12.638;2023-09-19T12:09:11;2.25;;;1.38;;
11488;SDS011;5801;50.804;12.638;2023-09-19T12:11:42;2.75;;;1.27;;
11488;SDS011;5801;50.804;12.638;2023-09-19T12:14:11;3.05;;;1.13;;
11488;SDS011;5801;50.804;12.638;2023-09-19T12:16:56;4.50;;;1.33;;
11488;SDS011;5801;50.804;12.638;2023-09-19T12:19:25;2.65;;;1.42;;
11488;SDS011;5801;50.804;12.638;2023-09-19T12:21:55;2.95;;;1.27;;
11488;SDS011;5801;50.804;12.638;2023-09-19T12:24:29;1.60;;;1.20;;
11488;SDS011;5801;50.804;12.638;2023-09-19T12:27:00;1.50;;;0.80;;
11488;SDS011;5801;50.804;12.638;2023-09-19T12:29:31;3.35;;;1.02;;
11488;SDS011;5801;50.804;12.638;2023-09-19T12:32:07;4.57;;;1.00;;
11488;SDS011;5801;50.804;12.638;2023-09-19T12:34:33;2.13;;;1.20;;
11488;SDS011;5801;50.804;12.638;2023-09-19T12:39:38;1.35;;;1.20;;
11488;SDS011;5801;50.804;12.638;2023-09-19T12:42:11;3.30;;;1.40;;
11488;SDS011;5801;50.804;12.638;2023-09-19T12:44:41;1.95;;;1.40;;
11488;SDS011;5801;50.804;12.638;2023-09-19T12:47:13;2.45;;;1.30;;
11488;SDS011;5801;50.804;12.638;2023-09-19T12:52:47;4.00;;;1.67;;
11488;SDS011;5801;50.804;12.638;2023-09-19T12:58:11;2.42;;;1.42;;
11488;SDS011;5801;50.804;12.638;2023-09-19T13:00:40;2.05;;;1.15;;
11488;SDS011;5801;50.804;12.638;2023-09-19T13:03:24;1.23;;;1.13;;
11488;SDS011;5801;50.804;12.638;2023-09-19T13:05:58;1.38;;;0.95;;
11488;SDS011;5801;50.804;12.638;2023-09-19T13:08:39;3.17;;;1.90;;
11488;SDS011;5801;50.804;12.638;2023-09-19T13:11:13;4.55;;;1.38;;
11488;SDS011;5801;50.804;12.638;2023-09-19T13:16:52;1.60;;;1.02;;
11488;SDS011;5801;50.804;12.638;2023-09-19T13:19:44;2.88;;;1.08;;
11488;SDS011;5801;50.804;12.638;2023-09-19T13:22:43;2.50;;;1.35;;
11488;SDS011;5801;50.804;12.638;2023-09-19T13:25:19;2.78;;;1.38;;
11488;SDS011;5801;50.804;12.638;2023-09-19T13:27:48;2.88;;;1.10;;
11488;SDS011;5801;50.804;12.638;2023-09-19T13:30:17;1.35;;;1.00;;
11488;SDS011;5801;50.804;12.638;2023-09-19T13:32:43;3.03;;;1.30;;
11488;SDS011;5801;50.804;12.638;2023-09-19T13:35:12;2.92;;;1.42;;
11488;SDS011;5801;50.804;12.638;2023-09-19T13:37:39;4.95;;;1.30;;
11488;SDS011;5801;50.804;12.638;2023-09-19T13:40:09;3.40;;;0.90;;
11488;SDS011;5801;50.804;12.638;2023-09-19T13:42:36;2.83;;;1.20;;
11488;SDS011;5801;50.804;12.638;2023-09-19T13:45:03;3.42;;;1.30;;
11488;SDS011;5801;50.804;12.638;2023-09-19T13:47:30;1.98;;;1.17;;
11488;SDS011;5801;50.804;12.638;2023-09-19T13:49:56;5.75;;;2.75;;
11488;SDS011;5801;50.804;12.638;2023-09-19T13:52:22;2.33;;;1.17;;
11488;SDS011;5801;50.804;12.638;2023-09-19T13:54:48;3.92;;;1.48;;
11488;SDS011;5801;50.804;12.638;2023-09-19T13:57:17;1.60;;;1.45;;
11488;SDS011;5801;50.804;12.638;2023-09-19T13:59:43;2.13;;;1.17;;
11488;SDS011;5801;50.804;12.638;2023-09-19T14:02:09;3.45;;;1.40;;
11488;SDS011;5801;50.804;12.638;2023-09-19T14:04:36;1.83;;;1.38;;
11488;SDS011;5801;50.804;12.638;2023-09-19T14:07:02;2.83;;;1.30;;
11488;SDS011;5801;50.804;12.638;2023-09-19T14:09:28;1.77;;;1.40;;
11488;SDS011;5801;50.804;12.638;2023-09-19T14:11:54;4.97;;;1.88;;
11488;SDS011;5801;50.804;12.638;2023-09-19T14:14:22;1.83;;;1.40;;
11488;SDS011;5801;50.804;12.638;2023-09-19T14:16:48;5.78;;;1.52;;
11488;SDS011;5801;50.804;12.638;2023-09-19T14:19:14;2.10;;;1.50;;
11488;SDS011;5801;50.804;12.638;2023-09-19T14:21:41;2.97;;;1.63;;
11488;SDS011;5801;50.804;12.638;2023-09-19T14:24:07;5.38;;;1.77;;
11488;SDS011;5801;50.804;12.638;2023-09-19T14:26:37;2.47;;;1.88;;
11488;SDS011;5801;50.804;12.638;2023-09-19T14:29:04;2.70;;;1.88;;
11488;SDS011;5801;50.804;12.638;2023-09-19T14:31:32;4.97;;;1.73;;
11488;SDS011;5801;50.804;12.638;2023-09-19T14:33:58;3.22;;;1.90;;
11488;SDS011;5801;50.804;12.638;2023-09-19T14:36:24;3.40;;;1.63;;
11488;SDS011;5801;50.804;12.638;2023-09-19T14:38:53;2.00;;;1.52;;
11488;SDS011;5801;50.804;12.638;2023-09-19T14:41:20;5.45;;;1.88;;
11488;SDS011;5801;50.804;12.638;2023-09-19T14:43:47;1.65;;;1.50;;
11488;SDS011;5801;50.804;12.638;2023-09-19T14:46:14;3.22;;;1.58;;
11488;SDS011;5801;50.804;12.638;2023-09-19T14:48:39;2.35;;;1.52;;
11488;SDS011;5801;50.804;12.638;2023-09-19T14:51:06;2.45;;;1.52;;
11488;SDS011;5801;50.804;12.638;2023-09-19T14:53:36;4.20;;;1.73;;
11488;SDS011;5801;50.804;12.638;2023-09-19T14:56:03;5.00;;;1.80;;
11488;SDS011;5801;50.804;12.638;2023-09-19T14:58:32;2.05;;;1.35;;
11488;SDS011;5801;50.804;12.638;2023-09-19T15:03:38;3.65;;;1.75;;
11488;SDS011;5801;50.804;12.638;2023-09-19T15:06:06;3.40;;;1.73;;
11488;SDS011;5801;50.804;12.638;2023-09-19T15:08:35;7.97;;;2.00;;
11488;SDS011;5801;50.804;12.638;2023-09-19T15:11:05;3.90;;;1.95;;
11488;SDS011;5801;50.804;12.638;2023-09-19T15:13:35;8.93;;;2.20;;
11488;SDS011;5801;50.804;12.638;2023-09-19T15:16:02;3.72;;;1.38;;
11488;SDS011;5801;50.804;12.638;2023-09-19T15:18:34;2.25;;;1.40;;
11488;SDS011;5801;50.804;12.638;2023-09-19T15:21:08;3.85;;;1.52;;
11488;SDS011;5801;50.804;12.638;2023-09-19T15:23:36;5.13;;;1.98;;
11488;SDS011;5801;50.804;12.638;2023-09-19T15:26:04;5.78;;;1.90;;
11488;SDS011;5801;50.804;12.638;2023-09-19T15:28:30;4.70;;;2.17;;
11488;SDS011;5801;50.804;12.638;2023-09-19T15:31:09;6.47;;;1.65;;
11488;SDS011;5801;50.804;12.638;2023-09-19T15:33:37;2.75;;;1.27;;
11488;SDS011;5801;50.804;12.638;2023-09-19T15:36:07;3.03;;;1.80;;
11488;SDS011;5801;50.804;12.638;2023-09-19T15:41:27;6.25;;;1.88;;
11488;SDS011;5801;50.804;12.638;2023-09-19T15:43:56;2.38;;;1.73;;
11488;SDS011;5801;50.804;12.638;2023-09-19T15:46:24;6.38;;;2.08;;
11488;SDS011;5801;50.804;12.638;2023-09-19T15:48:52;3.65;;;1.70;;
11488;SDS011;5801;50.804;12.638;2023-09-19T15:51:18;3.65;;;1.52;;
11488;SDS011;5801;50.804;12.638;2023-09-19T15:53:45;2.65;;;1.83;;
11488;SDS011;5801;50.804;12.638;2023-09-19T15:56:13;2.78;;;1.88;;
11488;SDS011;5801;50.804;12.638;2023-09-19T15:58:43;3.47;;;2.22;;
11488;SDS011;5801;50.804;12.638;2023-09-19T16:01:09;3.55;;;1.50;;
11488;SDS011;5801;50.804;12.638;2023-09-19T16:03:36;3.08;;;1.67;;
11488;SDS011;5801;50.804;12.638;2023-09-19T16:06:12;5.53;;;2.10;;
11488;SDS011;5801;50.804;12.638;2023-09-19T16:08:43;3.03;;;1.60;;
11488;SDS011;5801;50.804;12.638;2023-09-19T16:11:13;4.03;;;1.40;;
11488;SDS011;5801;50.804;12.638;2023-09-19T16:13:40;3.47;;;1.52;;
11488;SDS011;5801;50.804;12.638;2023-09-19T16:16:08;2.08;;;1.40;;